Aaron Pulisic

Scout - Columbus Crew
3 Dec 2028
Sunday
Process

Personality

Adaptability (10) Ambition (15) Controversy (1) Loyalty (14) Pressure (13) Professionalism (4) Sportsmanship (19) Temperament (10)

Profile

Coaching Style Democratic
License Continental A
Determination 5
Man Management 12
Motivating 5
Discipline 12
Job Satisfaction
100%
Fatigue
0%
Role Scout
Wage 85.9K p/w
Contract 14.03.2030

Performance

Behaviour Good
Training Effectiveness
43%
Player Development
55%
Injury Prevention
60%
Tactical Implementation
35%

Recent Events

Attended a recruitment meeting now
Attended a recruitment meeting now
Recommended a transfer target now
Assessed a player now
Recommended a transfer target 7d ago
Assessed a player 7d ago
Assessed a player 7d ago
Assessed a player 7d ago

Currently Monitoring

204
Player Club Status Ability Confidence Watched Last Observed Latest Vote
Luis Otávio Orlando City Active 109 / 119 40% 5 01.12.2028 -
Peyton Miller New England Revolution Active 110 / 115 40% 4 01.12.2028 -
Estanislao López Colón Active 99 / 91 40% 4 01.12.2028 -
Máximo Munarriz San Telmo Active 99 / 115 40% 2 29.11.2028 -
Andrija Bulatović Chamois Niortais Active 129 / 137 40% 2 29.11.2028 -
Calvin Diakite Chesterfield Active 91 / 99 40% 3 29.11.2028 -
Louis Page Leicester City Active 128 / 141 40% 5 28.11.2028 -
Celías Ingenthron Platense Active 123 / 120 40% 3 28.11.2028 -
Ivan Borges Defensores Active 91 / 92 40% 2 28.11.2028 -
Lwandiso Radebe Ajax Cape Town Active 113 / 115 40% 7 26.11.2028 -
Alessandro Nunziante Mantova Active 125 / 132 40% 2 26.11.2028 -
Doug Lukjanciks Everton Active 98 / 101 40% 1 26.11.2028 -
Riquelme Thompson-Jones Accrington Stanley Active 110 / 118 40% 2 25.11.2028 -
Noah Markmann Esbjerg Active 119 / 123 40% 2 25.11.2028 -
Felipe Varela Trujillanos Active 82 / 102 40% 2 25.11.2028 -
Abubakar Adams Aduana Stars Active 96 / 87 40% 4 20.11.2028 -
Ezra Mayers West Ham United Active 134 / 135 40% 3 20.11.2028 -
Farren Doran Tottenham Active 106 / 104 40% 2 18.11.2028 -
Ethan Gold Crewe Alexandra Active 97 / 109 40% 1 18.11.2028 -
Joel Ezra Enyimba Active 96 / 102 40% 11 17.11.2028 -
Jack Austin Chelsea Active 101 / 109 40% 2 17.11.2028 -
Jack Shorrock Port Vale Active 110 / 113 40% 1 17.11.2028 -
Malte Hallin GIF Sundsvall Active 89 / 94 40% 1 17.11.2028 -
Jack Porter Port Vale Active 119 / 122 40% 1 17.11.2028 -
Takalani Mazhamba Kaizer Chiefs Active 114 / 105 40% 1 17.11.2028 -
Chris Rigg West Ham United Active 136 / 146 40% 5 15.11.2028 -
Marko Zebić Lucko Active 125 / 117 40% 1 15.11.2028 -
Giovanni Leoni Lincoln City Active 145 / 150 40% 10 14.11.2028 -
Mateo Faure BATE Active 94 / 94 40% 2 12.11.2028 -
Rene Hrvatin Istra 1961 Active 112 / 115 40% 1 12.11.2028 -
Alastair Graham Nottingham Forest Active 106 / 117 40% 2 11.11.2028 -
Matt Bagot Fulham Active 82 / 100 40% 1 11.11.2028 -
Trey Nyoni Rotherham United Active 146 / 153 40% 10 10.11.2028 -
Gideon Manaseh Ikorodu City Active 81 / 96 40% 7 10.11.2028 -
Divine Onourah Atlas Active 98 / 95 40% 2 10.11.2028 -
Jack Allan Aston Villa Active 96 / 95 40% 2 10.11.2028 -
Josh King Newcastle United Active 146 / 157 40% 1 10.11.2028 -
Owen Asemota Aston Villa Active 105 / 112 40% 5 07.11.2028 -
Callan McKenna Derby County Active 118 / 112 40% 2 07.11.2028 -
Oliver Lloyd Middlesbrough Active 99 / 99 40% 2 05.11.2028 -
Francisco Machis Llaneros Active 99 / 99 40% 4 04.11.2028 -
Ronan Kpakio AC Milan Active 127 / 137 40% 6 03.11.2028 -
Finley Grigg Manchester City Active 102 / 112 40% 1 02.11.2028 -
Liam Doyle Brighton Active 85 / 101 40% 1 02.11.2028 -
Sebastian Rodriguez Houston Dynamo Active 114 / 132 40% 4 01.11.2028 -
Dylan Moody Cheltenham Town Active 121 / 129 40% 2 01.11.2028 -
Finley Taylor Blackburn Rovers Active 91 / 93 40% 1 01.11.2028 -
Owen Grainger Nottingham Forest Active 85 / 92 40% 1 01.11.2028 -
Moses Sesay Southampton Active 109 / 122 40% 1 30.10.2028 -
Nicholas Michalski Northampton Town Active 111 / 125 40% 2 28.10.2028 -
Blake Irow Tottenham Active 103 / 109 40% 2 28.10.2028 -
Toby Bell Chelsea Active 92 / 108 40% 1 28.10.2028 -
Tyler Fletcher Rotherham United Active 112 / 127 40% 6 26.10.2028 -
Diego León Rotherham United Active 127 / 135 40% 3 26.10.2028 -
Tobías Ramírez River Plate Active 144 / 131 40% 4 25.10.2028 -
Óscar Hinojosa Metropolitanos Active 78 / 86 40% 1 25.10.2028 -
Aytor Herrera Mineros de Guayana Active 100 / 86 40% 3 24.10.2028 -
Tiago Gordillo San Miguel Active 82 / 87 40% 2 23.10.2028 -
Sam Proctor Salford City Active 119 / 125 40% 1 23.10.2028 -
Azizbek To'lqinbekov Bunyodkor Active 95 / 117 40% 1 23.10.2028 -
Somtochuwku Ezenabo Kwara United Active 81 / 96 40% 2 22.10.2028 -
Alejandro Tapia Central Norte Active 79 / 84 40% 2 20.10.2028 -
Rhys Chadwick Blackpool Active 110 / 119 40% 3 18.10.2028 -
Jack Thompson Derby County Active 98 / 105 40% 1 17.10.2028 -
Jim Thwaites Manchester United Active 122 / 130 40% 1 17.10.2028 -
Joseph Cowan Sunderland Active 94 / 104 40% 1 13.10.2028 -
Gerardo Díaz San Martín SJ Active 110 / 113 40% 1 13.10.2028 -
Agustín Albrini Independiente Rivadavia Active 86 / 103 40% 1 13.10.2028 -
Harrison Armstrong Ipswich Town Active 137 / 146 40% 1 09.10.2028 -
Bailey Hall Liverpool Active 93 / 95 40% 2 07.10.2028 -
Lehlogonolo Mohlabine Mamelodi Sundowns Active 96 / 104 40% 1 07.10.2028 -
Charlie Warren Queens Park Rangers Active 102 / 99 40% 1 06.10.2028 -
Honest Ahanor Atalanta Active 134 / 144 40% 3 05.10.2028 -
Joachim Kayi Sanda Southampton Active 119 / 134 40% 3 05.10.2028 -
Kiyani Zeggen AZ Active 144 / 147 40% 1 03.10.2028 -
Finley Hooper West Ham United Active 98 / 97 40% 1 03.10.2028 -
Christos Mouzakitis Hull City Active 133 / 150 40% 6 16.09.2028 -
Ayden Heaven Portsmouth Active 146 / 160 40% 4 15.09.2028 -
Lucas Camejo River Plate Active 87 / 99 40% 4 11.09.2028 -
Bade Aluko Leicester City Active 127 / 127 40% 1 09.09.2028 -
Hosea Michael Remo Stars Active 89 / 86 40% 2 06.09.2028 -
Aboubacar Meïté Afrique Foot Elite Active 96 / 92 40% 1 05.09.2028 -
Onyeuche Ujunwa Ikorodu City Active 80 / 90 40% 2 04.09.2028 -
Jan Cedilnik Chikhura Active 77 / 83 40% 1 04.09.2028 -
Bahodir Halilov Nasaf Active 90 / 99 40% 1 30.08.2028 -
Lautaro Dufur Juventud Active 104 / 107 40% 1 25.08.2028 -
Thijs Kraaijeveld USM Alger Active 138 / 139 40% 1 17.08.2028 -
Darwin Pérez Metropolitanos Active 90 / 94 40% 1 17.08.2028 -
Musa Danjuma Umraniyespor Active 90 / 119 40% 1 10.08.2028 -
Augusto Bando Ascoli Active 119 / 120 40% 1 08.08.2028 -
Federico Matarán Giana Erminio Active 114 / 122 40% 1 07.08.2028 -
Siyabonga Hlatshwayo Bloemfontein Celtic Active 84 / 111 40% 1 31.07.2028 -
Puso Dithejane Chicago Fire Active 108 / 118 65% 1 14.07.2028 Approve
Lamine Bèye Portimonense Active 107 / 123 40% 1 07.07.2028 -
Peter Shalulile Mamelodi Sundowns Active 140 / 130 40% 1 12.02.2028 -
William Osula Wrexham Active 141 / 130 40% 1 12.02.2028 -
Rodrigo Muniz Fulham Active 147 / 148 40% 1 12.02.2028 -
Fábio Carvalho Brentford Active 151 / 145 40% 2 11.02.2028 -
Mohamed-Ali Cho Hull City Active 139 / 140 40% 1 11.02.2028 -
Archie Gray Southampton Active 157 / 150 40% 2 10.02.2028 -
Josh Acheampong Everton Active 144 / 141 40% 2 10.02.2028 -
Bongani Khune SuperSport United Active 118 / 138 40% 2 09.02.2028 -
Liel Abada Inter Miami CF Active 138 / 133 40% 1 09.02.2028 -
Esquerdinha Notts County Active 117 / 128 40% 3 07.02.2028 -
Zane Albarus Shrewsbury Town Active 107 / 107 40% 3 03.01.2028 -
Matias Siltanen Malmo FF Active 116 / 127 40% 5 01.01.2028 -
Caleb Yirenkyi Coventry City Active 147 / 144 40% 1 15.12.2027 -
David Damboama El-Kanemi Warriors Active 86 / 85 40% 1 12.12.2027 -
Charlie Gray Fleetwood Town Active 102 / 104 40% 1 11.12.2027 -
Josh Nichols Oldham Athletic Active 123 / 124 40% 2 09.12.2027 -
Colin Guske Orlando City Active 84 / 96 40% 1 19.11.2027 -
Godwin Oham Warri Wolves Active 74 / 100 40% 2 11.11.2027 -
Daniel Idoko Ikorodu City Active 96 / 103 40% 1 08.11.2027 -
Olaniyi Saheed Kwara United Active 89 / 109 40% 1 08.11.2027 -
Victor Hernandez Santa Fe Active 134 / 133 40% 2 01.11.2027 -
Lucas Bergvall Tottenham Active 145 / 153 40% 2 18.10.2027 -
Malick Yalcouyé Brighton Active 135 / 130 40% 1 06.10.2027 -
Sebastian Jensen Brighton Active 98 / 99 40% 1 06.09.2027 -
Carlos Nemocón Santa Fe Active 93 / 103 40% 1 06.09.2027 -
Riley Owen Stevenage Active 112 / 106 40% 1 07.07.2027 -
Fran Vieites Walsall Active 114 / 116 40% 1 22.02.2027 -
Kyle Wootton Stockport County Active 128 / 116 40% 1 12.02.2027 -
Yousef Salech Cardiff City Active 134 / 126 40% 1 12.02.2027 -
Tyrese Campbell Sheffield United Active 132 / 124 40% 1 11.02.2027 Needs More Info
Patrick Agyemang Derby County Active 122 / 124 40% 1 10.02.2027 -
James Trafford Leeds United Active 137 / 145 40% 1 10.02.2027 -
Monty Batlhabane Polokwane City Active 107 / 109 40% 3 08.02.2027 -
James Dornelly Peterborough United Active 104 / 102 40% 1 08.02.2027 -
Chemsdine Talbi Sunderland Active 144 / 148 40% 1 08.02.2027 -
Radek Vítek Middlesbrough Active 132 / 137 40% 1 07.02.2027 -
Daniel Awuni Aduana Stars Active 104 / 103 40% 1 07.02.2027 -
Cauan Baptistella Dynamo Kyiv Active 100 / 104 40% 2 06.02.2027 -
Oswin Appollis Orlando Pirates Active 112 / 118 40% 1 04.02.2027 -
Rivaldo Mkhize Black Aces Active 88 / 84 40% 1 02.02.2027 -
Peter Amidu Acquah Asante Kotoko Active 85 / 101 40% 1 02.02.2027 -
Sergio Barlocco Trento Active 101 / 104 40% 2 31.01.2027 -
Vadym Yushchyshyn UCSA Active 82 / 84 40% 1 31.01.2027 -
Nana Nuhu WAFA Active 98 / 102 40% 2 29.01.2027 -
Gilbert Bandama Hapoel Kfar Saba Active 114 / 112 40% 1 29.01.2027 -
Hakim Sulemana Ashanti Gold Active 96 / 95 40% 2 26.01.2027 -
Shea Lacey Crystal Palace Active 118 / 133 40% 1 26.01.2027 -
Percy Phiri Ajax Cape Town Active 104 / 114 40% 1 26.01.2027 -
Lwanda Mbanjwa Platinum Stars Active 95 / 104 40% 2 24.01.2027 -
Bruno Gomes Valletta Active 96 / 101 40% 1 24.01.2027 -
Araphat Mohammed Ashanti Gold Active 89 / 97 40% 1 23.01.2027 -
Francesco D'Alterio Ternana Active 105 / 113 40% 1 21.01.2027 -
Gladson Amoah Liberty Professionals Active 104 / 86 40% 1 21.01.2027 -
Patrick Schmidt Tarxien Rainbows Active 105 / 107 40% 1 19.01.2027 -
Wandile Duba ASO Chlef Active 105 / 108 40% 1 18.01.2027 -
Asanele Bonani Chippa United Active 75 / 86 40% 1 16.01.2027 -
Sindre Walle Egeli Udinese Active 135 / 140 40% 1 15.01.2027 -
Cemran Dansin Orlando Pirates Active 102 / 116 40% 2 12.01.2027 -
Simphiwe Selepe Orlando Pirates Active 121 / 123 40% 2 12.01.2027 -
Gladson Adjei WAFA Active 82 / 75 40% 1 12.01.2027 -
Martin Velichkov Lokomotiv Sofia Active 101 / 107 40% 1 10.01.2027 -
Lucas Ferreira Shakhtar Active 107 / 130 40% 1 08.01.2027 -
Mohammed Galadima Hapoel Kfar Saba Active 91 / 82 40% 1 05.01.2027 -
Yuki Ohashi Hapoel Tel Aviv Active 124 / 125 40% 1 03.01.2027 -
Uroš Đuranović Sliema Wanderers Active 96 / 105 40% 1 02.01.2027 -
Mathys Tel Tottenham Active 139 / 153 40% 2 30.12.2026 -
Arsen Adamov Akhmat Grozny Active 134 / 117 40% 1 28.12.2026 -
Ilja Vakhania Krasnodar Active 113 / 113 40% 1 28.12.2026 -
Harvey Vale Queens Park Rangers Active 123 / 122 40% 2 27.12.2026 -
Rubens Dinamo Moscow Active 123 / 125 40% 2 24.12.2026 -
David Ozoh Derby County Active 115 / 124 40% 4 20.12.2026 -
Alexandr Chernikov Krasnodar Active 130 / 127 40% 1 20.12.2026 -
Luke Baartman Ajax Cape Town Active 101 / 106 40% 1 19.12.2026 -
Kirill Glebov CSKA Moscow Active 125 / 130 40% 5 18.12.2026 -
Gedson Fernandes Spartak Moscow Active 143 / 134 40% 2 16.12.2026 -
Oliver Arblaster Sheffield United Active 127 / 126 40% 1 12.12.2026 -
Danil Glebov Dinamo Moscow Active 142 / 132 40% 1 12.12.2026 -
Facundo Mura Inter Miami CF Active 117 / 125 40% 1 08.12.2026 -
Csanád Vilmos Dénes Debrecen Active 114 / 102 40% 1 09.11.2026 -
Benjamin Jack Sliema Wanderers Active 82 / 81 40% 1 08.11.2026 -
Nikita Krivtsov Krasnodar Active 121 / 127 40% 1 04.11.2026 -
Aldair Faustino Levski Active 123 / 128 40% 1 02.11.2026 -
Jayden Bogle Leeds United Active 129 / 139 40% 1 02.11.2026 -
Tomás Aranda Boca Juniors Active 121 / 114 40% 2 31.10.2026 -
Artem Slesar Zorya Active 118 / 120 40% 1 31.10.2026 -
Themba Dala Black Aces Active 118 / 110 40% 2 30.10.2026 -
Romelle Donovan Brentford Active 111 / 130 40% 3 29.10.2026 -
Dean Jali Platinum Stars Active 81 / 96 40% 1 29.10.2026 -
Maren Kefas Plateau United Active 79 / 86 40% 3 24.10.2026 -
Roman Dixon Walsall Active 102 / 107 40% 1 23.10.2026 -
Gomolemo Kekana Maritzburg United Active 89 / 100 40% 2 12.10.2026 -
Abubakar Garba Nasarawa United Active 102 / 91 40% 1 08.10.2026 -
Mustapha Umar Kano Pillars Active 99 / 100 40% 1 07.10.2026 -
Gady Beyuku Blackburn Rovers Active 113 / 125 40% 2 06.10.2026 -
Hassan Beja AFC Leopards Active 71 / 85 40% 1 05.10.2026 -
Darren Yapi Colorado Rapids Active 109 / 112 40% 1 02.10.2026 -
Clinton Jephta Niger Tornadoes Active 96 / 96 40% 1 02.10.2026 -
Ismail Mukhtar El-Kanemi Warriors Active 99 / 81 40% 2 30.09.2026 -
Sadiq Auwal Niger Tornadoes Active 81 / 95 40% 1 30.09.2026 -
Yahaya Ibrahim Plateau United Active 80 / 83 40% 1 28.09.2026 -
Wisdom Udom Bendel Insurance Active 83 / 90 40% 1 28.09.2026 -
Law McCabe Middlesbrough Active 110 / 118 40% 1 23.09.2026 -
Akeel Higgins West Bromwich Albion Active 89 / 94 40% 1 22.09.2026 -
Raul Gustavo New York City Active 113 / 113 40% 1 18.09.2026 -
Juan Mosquera Portland Timbers Active 118 / 117 40% 1 13.09.2026 -
Yannick Bright Inter Miami CF Active 113 / 123 40% 1 11.09.2026 -
Mbekezeli Mbokazi Chicago Fire Active 129 / 123 40% 1 11.09.2026 -
Facundo Miño Deportivo Riestra Active 122 / 123 40% 1 09.09.2026 -
Iliya Gruev Leeds United Active 133 / 132 40% 1 09.09.2026 -
Cole Bassett Portland Timbers Active 128 / 125 40% 1 07.09.2026 -